Flight Track Log - Related Links

Times and Time Zones

All times are in EDT time to prevent confusion due to time zone crossing. See the SWA118 flight status page for this flight to view local times or setup timezone preferences in your user account.

Time Position Orientation Groundspeed Altitude Reporting Facility
EDT Latitude Longitude Course Direction KTS MPH feet Rate Location/Type
Wed 09:34:34 PM 39.7000 -86.3167 237° Southwest 159 183 2,000  Level Indianapolis TRACON
Wed 09:35:16 PM 39.6833 -86.3500 237° Southwest 169 194 3,300 2,622 Climbing Indianapolis TRACON
Wed 09:36:49 PM 39.6611 -86.4558 246° West 195 224 7,900 2,455 Climbing Indianapolis Center
Wed 09:37:50 PM 39.6656 -86.5447 274° West 219 252 9,600 2,878 Climbing Indianapolis Center
Wed 09:38:52 PM 39.6736 -86.6450 276° West 242 278 13,800 3,268 Climbing Indianapolis Center
Wed 09:39:53 PM 39.6811 -86.7553 275° West 281 323 16,300 2,754 Climbing Indianapolis Center
Wed 09:40:54 PM 39.6894 -86.8694 275° West 307 353 19,400 2,754 Climbing Indianapolis Center
Wed 09:41:55 PM 39.6969 -86.9872 275° West 322 371 21,900 1,279 Climbing Indianapolis Center
Wed 09:42:56 PM 39.7058 -87.1100 275° West 335 386 22,000 49 Climbing Indianapolis Center
Wed 09:43:57 PM 39.7381 -87.2300 289° West 354 407 22,000  Level Indianapolis Center
Wed 09:44:58 PM 39.7731 -87.3533 290° West 363 418 22,000  Level Indianapolis Center
Wed 09:46:00 PM 39.8092 -87.4767 291° West 364 419 22,000  Level Indianapolis Center
Wed 09:47:01 PM 39.8442 -87.5992 290° West 363 418 22,000  Level Indianapolis Center
Wed 09:48:02 PM 39.8872 -87.7481 291° West 365 420 22,000  Level Indianapolis Center
Wed 09:49:03 PM 39.9214 -87.8714 290° West 363 418 22,000  Level Indianapolis Center
Wed 09:49:22 PM 39.9308 -87.9086 288° West 363 418 22,000  Level Chicago Center
Wed 09:50:23 PM 39.9664 -88.0328 291° West 366 421 22,000  Level Chicago Center
Wed 09:51:24 PM 40.0006 -88.1578 290° West 367 422 22,000  Level Chicago Center
Wed 09:52:25 PM 40.0444 -88.2769 296° West 367 422 22,000  Level Chicago Center
Wed 09:53:26 PM 40.1425 -88.3383 334° Northwest 394 453 22,000  Level Chicago Center
Wed 09:54:27 PM 40.2436 -88.3972 336° Northwest 388 447 22,000  Level Chicago Center
Wed 09:55:29 PM 40.3419 -88.4533 336° Northwest 387 445 22,000 -98 Level Chicago Center
Wed 09:56:29 PM 40.4356 -88.5083 336° Northwest 383 441 21,800 -645 Descending Chicago Center
Wed 09:57:30 PM 40.5344 -88.5653 336° Northwest 377 434 20,700 -1,024 Descending Chicago Center
Wed 09:58:32 PM 40.6281 -88.6200 336° Northwest 371 427 19,700 -1,073 Descending Chicago Center
Wed 09:59:33 PM 40.7403 -88.6861 336° Northwest 370 426 18,500 -1,377 Descending Chicago Center
Wed 10:00:34 PM 40.8356 -88.7247 343° North 373 429 16,900 -787 Descending Chicago Center
Wed 10:01:35 PM 40.9411 -88.7044 North 387 445 16,900 -1,180 Level Chicago Center
Wed 10:02:36 PM 41.0369 -88.6350 29° Northeast 396 456 14,500 -2,459 Descending Chicago Center
Wed 10:03:37 PM 41.1375 -88.5722 25° Northeast 399 459 11,900 -2,213 Descending Chicago Center
Wed 10:04:38 PM 41.2347 -88.5119 25° Northeast 388 447 10,000 -1,820 Descending Chicago Center
Wed 10:05:39 PM 41.3219 -88.4578 25° Northeast 350 403 8,200 -1,721 Descending Chicago Center
Wed 10:06:40 PM 41.4053 -88.4006 27° Northeast 340 391 6,500 -1,180 Descending Chicago Center
Wed 10:07:41 PM 41.4358 -88.2997 68° East 299 344 5,800 -1,033 Descending Chicago Center
Wed 10:08:42 PM 41.4789 -88.2142 56° Northeast 283 326 4,400 -885 Descending Chicago Center
Wed 10:09:43 PM 41.5256 -88.1381 51° Northeast 267 307 4,000 -197 Descending Chicago Center
Wed 10:10:44 PM 41.5700 -88.0614 52° Northeast 260 299 4,000  Level Chicago Center
Wed 10:11:45 PM 41.6158 -87.9828 52° Northeast 263 303 4,000  Level Chicago Center
Wed 10:12:46 PM 41.6556 -87.9153 52° Northeast 244 281 4,000 -545 Level Chicago Center
Wed 10:13:35 PM 41.7000 -87.8667 39° Northeast 192 221 3,000 -1,043 Descending Chicago TRACON
Wed 10:14:41 PM 41.7333 -87.8167 48° Northeast 153 176 2,000 -900 Descending Chicago TRACON
Wed 10:15:35 PM 41.7500 -87.7833 56° Northeast 148 170 1,200 -889 Descending Chicago TRACON

Login

Don't have an account? Register now (free) for customized features, flight alerts, and more!